sensor_id;sensor_type;location;lat;lon;timestamp;P1;durP1;ratioP1;P2;durP2;ratioP2
54259;SDS011;40172;53.022;7.012;2023-08-06T00:02:12;35.58;;;24.83;;
54259;SDS011;40172;53.022;7.012;2023-08-06T00:04:38;35.35;;;22.98;;
54259;SDS011;40172;53.022;7.012;2023-08-06T00:07:04;33.35;;;22.27;;
54259;SDS011;40172;53.022;7.012;2023-08-06T00:09:29;34.88;;;23.45;;
54259;SDS011;40172;53.022;7.012;2023-08-06T00:11:55;33.03;;;22.85;;
54259;SDS011;40172;53.022;7.012;2023-08-06T00:14:20;34.75;;;22.40;;
54259;SDS011;40172;53.022;7.012;2023-08-06T00:16:46;39.63;;;24.20;;
54259;SDS011;40172;53.022;7.012;2023-08-06T00:19:12;33.22;;;23.42;;
54259;SDS011;40172;53.022;7.012;2023-08-06T00:21:37;33.53;;;21.00;;
54259;SDS011;40172;53.022;7.012;2023-08-06T00:24:03;37.33;;;22.98;;
54259;SDS011;40172;53.022;7.012;2023-08-06T00:26:28;32.53;;;22.65;;
54259;SDS011;40172;53.022;7.012;2023-08-06T00:28:54;27.10;;;20.13;;
54259;SDS011;40172;53.022;7.012;2023-08-06T00:31:19;35.95;;;22.83;;
54259;SDS011;40172;53.022;7.012;2023-08-06T00:33:45;30.45;;;22.42;;
54259;SDS011;40172;53.022;7.012;2023-08-06T00:36:11;33.70;;;22.23;;
54259;SDS011;40172;53.022;7.012;2023-08-06T00:38:36;32.58;;;23.10;;
54259;SDS011;40172;53.022;7.012;2023-08-06T00:41:02;38.17;;;23.48;;
54259;SDS011;40172;53.022;7.012;2023-08-06T00:43:27;30.33;;;22.13;;
54259;SDS011;40172;53.022;7.012;2023-08-06T00:45:53;30.77;;;22.90;;
54259;SDS011;40172;53.022;7.012;2023-08-06T00:48:19;35.13;;;24.23;;
54259;SDS011;40172;53.022;7.012;2023-08-06T00:50:45;30.88;;;22.83;;
54259;SDS011;40172;53.022;7.012;2023-08-06T00:53:11;29.92;;;22.10;;
54259;SDS011;40172;53.022;7.012;2023-08-06T00:55:37;32.80;;;23.40;;
54259;SDS011;40172;53.022;7.012;2023-08-06T00:58:03;34.85;;;22.95;;
54259;SDS011;40172;53.022;7.012;2023-08-06T01:00:29;33.72;;;22.92;;
54259;SDS011;40172;53.022;7.012;2023-08-06T01:02:55;34.70;;;23.50;;
54259;SDS011;40172;53.022;7.012;2023-08-06T01:05:21;36.53;;;23.08;;
54259;SDS011;40172;53.022;7.012;2023-08-06T01:13:04;30.35;;;20.98;;
54259;SDS011;40172;53.022;7.012;2023-08-06T01:15:35;30.45;;;20.90;;
54259;SDS011;40172;53.022;7.012;2023-08-06T01:18:24;31.17;;;21.00;;
54259;SDS011;40172;53.022;7.012;2023-08-06T01:20:51;29.23;;;21.15;;
54259;SDS011;40172;53.022;7.012;2023-08-06T01:23:17;33.53;;;21.60;;
54259;SDS011;40172;53.022;7.012;2023-08-06T01:25:45;27.90;;;19.75;;
54259;SDS011;40172;53.022;7.012;2023-08-06T01:28:40;13.07;;;5.60;;
54259;SDS011;40172;53.022;7.012;2023-08-06T01:31:34;25.95;;;18.80;;
54259;SDS011;40172;53.022;7.012;2023-08-06T01:34:03;21.95;;;17.83;;
54259;SDS011;40172;53.022;7.012;2023-08-06T01:36:32;24.45;;;18.60;;
54259;SDS011;40172;53.022;7.012;2023-08-06T01:38:58;24.08;;;18.55;;
54259;SDS011;40172;53.022;7.012;2023-08-06T01:41:24;25.38;;;17.85;;
54259;SDS011;40172;53.022;7.012;2023-08-06T01:43:50;21.50;;;16.52;;
54259;SDS011;40172;53.022;7.012;2023-08-06T01:46:16;20.08;;;15.95;;
54259;SDS011;40172;53.022;7.012;2023-08-06T01:48:41;18.30;;;15.68;;
54259;SDS011;40172;53.022;7.012;2023-08-06T01:51:07;21.23;;;15.73;;
54259;SDS011;40172;53.022;7.012;2023-08-06T01:53:33;12.82;;;5.22;;
54259;SDS011;40172;53.022;7.012;2023-08-06T01:55:59;18.60;;;15.73;;
54259;SDS011;40172;53.022;7.012;2023-08-06T01:58:24;18.45;;;15.38;;
54259;SDS011;40172;53.022;7.012;2023-08-06T02:00:50;22.17;;;16.48;;
54259;SDS011;40172;53.022;7.012;2023-08-06T02:03:16;24.00;;;17.52;;
54259;SDS011;40172;53.022;7.012;2023-08-06T02:05:42;23.42;;;17.05;;
54259;SDS011;40172;53.022;7.012;2023-08-06T02:08:07;22.23;;;16.02;;
54259;SDS011;40172;53.022;7.012;2023-08-06T02:10:33;13.35;;;5.35;;
54259;SDS011;40172;53.022;7.012;2023-08-06T02:12:59;20.10;;;15.57;;
54259;SDS011;40172;53.022;7.012;2023-08-06T02:15:25;22.23;;;17.52;;
54259;SDS011;40172;53.022;7.012;2023-08-06T02:17:50;23.00;;;16.73;;
54259;SDS011;40172;53.022;7.012;2023-08-06T02:20:16;21.98;;;18.33;;
54259;SDS011;40172;53.022;7.012;2023-08-06T02:22:42;22.02;;;18.15;;
54259;SDS011;40172;53.022;7.012;2023-08-06T02:25:07;25.95;;;19.75;;
54259;SDS011;40172;53.022;7.012;2023-08-06T02:27:33;28.70;;;20.75;;
54259;SDS011;40172;53.022;7.012;2023-08-06T02:29:58;6.43;;;4.85;;
54259;SDS011;40172;53.022;7.012;2023-08-06T02:32:24;9.95;;;5.18;;
54259;SDS011;40172;53.022;7.012;2023-08-06T02:34:50;24.98;;;19.33;;
54259;SDS011;40172;53.022;7.012;2023-08-06T02:37:15;24.27;;;19.05;;
54259;SDS011;40172;53.022;7.012;2023-08-06T02:39:41;24.95;;;19.95;;
54259;SDS011;40172;53.022;7.012;2023-08-06T02:42:07;26.88;;;21.10;;
54259;SDS011;40172;53.022;7.012;2023-08-06T02:44:33;7.70;;;5.07;;
54259;SDS011;40172;53.022;7.012;2023-08-06T02:46:59;27.30;;;20.77;;
54259;SDS011;40172;53.022;7.012;2023-08-06T02:49:25;27.67;;;20.80;;
54259;SDS011;40172;53.022;7.012;2023-08-06T02:51:50;25.85;;;19.88;;
54259;SDS011;40172;53.022;7.012;2023-08-06T02:54:16;24.02;;;20.38;;
54259;SDS011;40172;53.022;7.012;2023-08-06T02:56:45;27.23;;;19.58;;
54259;SDS011;40172;53.022;7.012;2023-08-06T02:59:13;28.45;;;21.15;;
54259;SDS011;40172;53.022;7.012;2023-08-06T03:01:39;26.38;;;20.40;;
54259;SDS011;40172;53.022;7.012;2023-08-06T03:04:05;11.82;;;6.82;;
54259;SDS011;40172;53.022;7.012;2023-08-06T03:06:31;9.25;;;5.72;;
54259;SDS011;40172;53.022;7.012;2023-08-06T03:08:57;28.33;;;21.27;;
54259;SDS011;40172;53.022;7.012;2023-08-06T03:11:22;29.42;;;21.73;;
54259;SDS011;40172;53.022;7.012;2023-08-06T03:13:48;33.05;;;22.05;;
54259;SDS011;40172;53.022;7.012;2023-08-06T03:16:14;28.85;;;22.25;;
54259;SDS011;40172;53.022;7.012;2023-08-06T03:18:39;25.88;;;21.55;;
54259;SDS011;40172;53.022;7.012;2023-08-06T03:21:05;27.45;;;21.92;;
54259;SDS011;40172;53.022;7.012;2023-08-06T03:23:31;34.28;;;23.67;;
54259;SDS011;40172;53.022;7.012;2023-08-06T03:26:00;30.55;;;22.30;;
54259;SDS011;40172;53.022;7.012;2023-08-06T03:28:29;33.80;;;24.80;;
54259;SDS011;40172;53.022;7.012;2023-08-06T03:31:01;27.33;;;21.98;;
54259;SDS011;40172;53.022;7.012;2023-08-06T03:33:27;30.75;;;22.70;;
54259;SDS011;40172;53.022;7.012;2023-08-06T03:35:53;32.80;;;23.83;;
54259;SDS011;40172;53.022;7.012;2023-08-06T03:38:19;30.50;;;22.83;;
54259;SDS011;40172;53.022;7.012;2023-08-06T03:40:45;33.20;;;23.58;;
54259;SDS011;40172;53.022;7.012;2023-08-06T03:43:11;34.45;;;23.08;;
54259;SDS011;40172;53.022;7.012;2023-08-06T03:45:37;30.65;;;22.88;;
54259;SDS011;40172;53.022;7.012;2023-08-06T03:48:02;29.17;;;21.77;;
54259;SDS011;40172;53.022;7.012;2023-08-06T03:50:28;27.50;;;22.13;;
54259;SDS011;40172;53.022;7.012;2023-08-06T03:52:53;28.73;;;22.20;;
54259;SDS011;40172;53.022;7.012;2023-08-06T03:55:19;27.70;;;21.38;;
54259;SDS011;40172;53.022;7.012;2023-08-06T03:57:45;29.70;;;20.45;;
54259;SDS011;40172;53.022;7.012;2023-08-06T04:00:10;27.30;;;20.08;;
54259;SDS011;40172;53.022;7.012;2023-08-06T04:02:37;24.08;;;20.08;;
54259;SDS011;40172;53.022;7.012;2023-08-06T04:05:03;8.35;;;5.32;;
54259;SDS011;40172;53.022;7.012;2023-08-06T04:07:28;23.83;;;18.98;;
54259;SDS011;40172;53.022;7.012;2023-08-06T04:09:58;22.38;;;19.40;;
54259;SDS011;40172;53.022;7.012;2023-08-06T04:12:25;24.02;;;18.35;;
54259;SDS011;40172;53.022;7.012;2023-08-06T04:14:51;25.50;;;20.38;;
54259;SDS011;40172;53.022;7.012;2023-08-06T04:17:17;23.80;;;18.40;;
54259;SDS011;40172;53.022;7.012;2023-08-06T04:19:55;25.13;;;18.70;;
54259;SDS011;40172;53.022;7.012;2023-08-06T04:22:23;22.23;;;18.48;;
54259;SDS011;40172;53.022;7.012;2023-08-06T04:24:49;28.20;;;20.33;;
54259;SDS011;40172;53.022;7.012;2023-08-06T04:27:15;32.05;;;20.85;;
54259;SDS011;40172;53.022;7.012;2023-08-06T04:29:41;24.55;;;19.48;;
54259;SDS011;40172;53.022;7.012;2023-08-06T04:32:07;29.05;;;19.77;;
54259;SDS011;40172;53.022;7.012;2023-08-06T04:34:34;29.25;;;20.08;;
54259;SDS011;40172;53.022;7.012;2023-08-06T04:37:01;23.00;;;19.77;;
54259;SDS011;40172;53.022;7.012;2023-08-06T04:39:27;29.67;;;19.15;;
54259;SDS011;40172;53.022;7.012;2023-08-06T04:41:53;25.50;;;18.25;;
54259;SDS011;40172;53.022;7.012;2023-08-06T04:44:18;23.60;;;18.17;;
54259;SDS011;40172;53.022;7.012;2023-08-06T04:46:45;8.48;;;4.82;;
54259;SDS011;40172;53.022;7.012;2023-08-06T04:49:11;22.08;;;17.85;;
54259;SDS011;40172;53.022;7.012;2023-08-06T04:51:36;26.88;;;17.85;;
54259;SDS011;40172;53.022;7.012;2023-08-06T04:54:02;8.63;;;5.45;;
54259;SDS011;40172;53.022;7.012;2023-08-06T04:56:27;27.80;;;19.10;;
54259;SDS011;40172;53.022;7.012;2023-08-06T04:58:54;27.73;;;19.05;;
54259;SDS011;40172;53.022;7.012;2023-08-06T05:01:19;27.20;;;18.73;;
54259;SDS011;40172;53.022;7.012;2023-08-06T05:03:46;26.90;;;18.50;;
54259;SDS011;40172;53.022;7.012;2023-08-06T05:06:12;20.20;;;16.83;;
54259;SDS011;40172;53.022;7.012;2023-08-06T05:08:38;27.55;;;18.15;;
54259;SDS011;40172;53.022;7.012;2023-08-06T05:11:03;9.48;;;4.90;;
54259;SDS011;40172;53.022;7.012;2023-08-06T05:13:29;22.10;;;16.80;;
54259;SDS011;40172;53.022;7.012;2023-08-06T05:15:54;19.40;;;15.05;;
54259;SDS011;40172;53.022;7.012;2023-08-06T05:18:20;18.13;;;14.50;;
54259;SDS011;40172;53.022;7.012;2023-08-06T05:20:46;18.38;;;13.73;;
54259;SDS011;40172;53.022;7.012;2023-08-06T05:23:12;17.67;;;13.60;;
54259;SDS011;40172;53.022;7.012;2023-08-06T05:25:38;13.52;;;12.13;;
54259;SDS011;40172;53.022;7.012;2023-08-06T05:28:04;16.35;;;11.60;;
54259;SDS011;40172;53.022;7.012;2023-08-06T05:30:30;16.35;;;12.10;;
54259;SDS011;40172;53.022;7.012;2023-08-06T05:32:55;14.13;;;11.77;;
54259;SDS011;40172;53.022;7.012;2023-08-06T05:35:21;13.00;;;11.27;;
54259;SDS011;40172;53.022;7.012;2023-08-06T05:37:47;16.55;;;10.70;;
54259;SDS011;40172;53.022;7.012;2023-08-06T05:40:14;13.27;;;10.82;;
54259;SDS011;40172;53.022;7.012;2023-08-06T05:42:40;15.05;;;10.43;;
54259;SDS011;40172;53.022;7.012;2023-08-06T05:45:06;12.40;;;9.95;;
54259;SDS011;40172;53.022;7.012;2023-08-06T05:47:32;11.93;;;10.20;;
54259;SDS011;40172;53.022;7.012;2023-08-06T05:49:58;10.63;;;9.57;;
54259;SDS011;40172;53.022;7.012;2023-08-06T05:52:24;10.70;;;9.70;;
54259;SDS011;40172;53.022;7.012;2023-08-06T05:54:49;10.90;;;9.27;;
54259;SDS011;40172;53.022;7.012;2023-08-06T05:57:16;12.45;;;9.27;;
54259;SDS011;40172;53.022;7.012;2023-08-06T05:59:42;12.27;;;9.25;;
54259;SDS011;40172;53.022;7.012;2023-08-06T06:02:07;10.80;;;8.55;;
54259;SDS011;40172;53.022;7.012;2023-08-06T06:04:33;11.95;;;8.68;;
54259;SDS011;40172;53.022;7.012;2023-08-06T06:06:59;11.32;;;9.20;;
54259;SDS011;40172;53.022;7.012;2023-08-06T06:09:24;10.02;;;8.90;;
54259;SDS011;40172;53.022;7.012;2023-08-06T06:11:50;10.85;;;9.25;;
54259;SDS011;40172;53.022;7.012;2023-08-06T06:14:19;12.27;;;9.60;;
54259;SDS011;40172;53.022;7.012;2023-08-06T06:16:44;12.75;;;9.15;;
54259;SDS011;40172;53.022;7.012;2023-08-06T06:19:11;10.55;;;9.20;;
54259;SDS011;40172;53.022;7.012;2023-08-06T06:21:36;11.70;;;9.50;;
54259;SDS011;40172;53.022;7.012;2023-08-06T06:24:05;11.77;;;9.02;;
54259;SDS011;40172;53.022;7.012;2023-08-06T06:26:31;11.18;;;9.65;;
54259;SDS011;40172;53.022;7.012;2023-08-06T06:28:57;14.55;;;9.65;;
54259;SDS011;40172;53.022;7.012;2023-08-06T06:31:23;12.30;;;9.25;;
54259;SDS011;40172;53.022;7.012;2023-08-06T06:33:49;10.77;;;9.48;;
54259;SDS011;40172;53.022;7.012;2023-08-06T06:36:14;10.55;;;8.95;;
54259;SDS011;40172;53.022;7.012;2023-08-06T06:38:40;11.10;;;9.10;;
54259;SDS011;40172;53.022;7.012;2023-08-06T06:41:06;11.18;;;9.07;;
54259;SDS011;40172;53.022;7.012;2023-08-06T06:43:31;9.05;;;8.15;;
54259;SDS011;40172;53.022;7.012;2023-08-06T06:45:58;11.95;;;8.82;;
54259;SDS011;40172;53.022;7.012;2023-08-06T06:48:25;9.50;;;8.50;;
54259;SDS011;40172;53.022;7.012;2023-08-06T06:50:52;12.38;;;9.98;;
54259;SDS011;40172;53.022;7.012;2023-08-06T06:53:17;9.77;;;8.77;;
54259;SDS011;40172;53.022;7.012;2023-08-06T06:55:43;10.43;;;9.35;;
54259;SDS011;40172;53.022;7.012;2023-08-06T06:58:09;9.93;;;8.82;;
54259;SDS011;40172;53.022;7.012;2023-08-06T07:00:38;10.25;;;8.57;;
54259;SDS011;40172;53.022;7.012;2023-08-06T07:03:03;9.50;;;8.25;;
54259;SDS011;40172;53.022;7.012;2023-08-06T07:05:29;9.45;;;8.40;;
54259;SDS011;40172;53.022;7.012;2023-08-06T07:07:55;9.98;;;7.88;;
54259;SDS011;40172;53.022;7.012;2023-08-06T07:10:20;10.23;;;8.45;;
54259;SDS011;40172;53.022;7.012;2023-08-06T07:12:46;8.70;;;7.88;;
54259;SDS011;40172;53.022;7.012;2023-08-06T07:15:11;9.50;;;8.13;;
54259;SDS011;40172;53.022;7.012;2023-08-06T07:17:37;10.55;;;7.97;;
54259;SDS011;40172;53.022;7.012;2023-08-06T07:20:03;9.75;;;8.27;;
54259;SDS011;40172;53.022;7.012;2023-08-06T07:22:29;9.05;;;8.00;;
54259;SDS011;40172;53.022;7.012;2023-08-06T07:24:55;9.95;;;7.55;;
54259;SDS011;40172;53.022;7.012;2023-08-06T07:27:20;9.15;;;7.38;;
54259;SDS011;40172;53.022;7.012;2023-08-06T07:29:46;8.02;;;6.93;;
54259;SDS011;40172;53.022;7.012;2023-08-06T07:32:13;9.00;;;7.32;;
54259;SDS011;40172;53.022;7.012;2023-08-06T07:34:38;8.57;;;7.43;;
54259;SDS011;40172;53.022;7.012;2023-08-06T07:37:04;8.02;;;7.22;;
54259;SDS011;40172;53.022;7.012;2023-08-06T07:39:30;10.00;;;8.45;;
54259;SDS011;40172;53.022;7.012;2023-08-06T07:41:56;8.15;;;7.35;;
54259;SDS011;40172;53.022;7.012;2023-08-06T07:44:21;11.35;;;7.78;;
54259;SDS011;40172;53.022;7.012;2023-08-06T07:46:47;8.05;;;7.22;;
54259;SDS011;40172;53.022;7.012;2023-08-06T07:49:13;8.27;;;7.13;;
54259;SDS011;40172;53.022;7.012;2023-08-06T07:51:38;10.65;;;7.22;;
54259;SDS011;40172;53.022;7.012;2023-08-06T07:54:04;11.48;;;7.03;;
54259;SDS011;40172;53.022;7.012;2023-08-06T07:56:30;9.77;;;6.80;;
54259;SDS011;40172;53.022;7.012;2023-08-06T07:58:56;8.35;;;7.38;;
54259;SDS011;40172;53.022;7.012;2023-08-06T08:01:21;8.25;;;6.43;;
54259;SDS011;40172;53.022;7.012;2023-08-06T08:03:47;9.18;;;7.65;;
54259;SDS011;40172;53.022;7.012;2023-08-06T08:06:13;7.22;;;6.53;;
54259;SDS011;40172;53.022;7.012;2023-08-06T08:08:38;7.53;;;6.82;;
54259;SDS011;40172;53.022;7.012;2023-08-06T08:11:04;10.52;;;7.25;;
54259;SDS011;40172;53.022;7.012;2023-08-06T08:13:30;8.73;;;6.93;;
54259;SDS011;40172;53.022;7.012;2023-08-06T08:15:59;7.72;;;7.00;;
54259;SDS011;40172;53.022;7.012;2023-08-06T08:18:26;12.55;;;8.43;;
54259;SDS011;40172;53.022;7.012;2023-08-06T08:20:51;9.15;;;8.27;;
54259;SDS011;40172;53.022;7.012;2023-08-06T08:23:17;7.63;;;6.93;;
54259;SDS011;40172;53.022;7.012;2023-08-06T08:25:42;11.02;;;7.30;;
54259;SDS011;40172;53.022;7.012;2023-08-06T08:28:08;8.10;;;7.03;;
54259;SDS011;40172;53.022;7.012;2023-08-06T08:30:33;9.15;;;6.80;;
54259;SDS011;40172;53.022;7.012;2023-08-06T08:32:59;7.35;;;6.65;;
54259;SDS011;40172;53.022;7.012;2023-08-06T08:35:25;7.90;;;6.93;;
54259;SDS011;40172;53.022;7.012;2023-08-06T08:37:50;11.20;;;7.25;;
54259;SDS011;40172;53.022;7.012;2023-08-06T08:40:16;9.30;;;6.72;;
54259;SDS011;40172;53.022;7.012;2023-08-06T08:42:43;9.48;;;6.88;;
54259;SDS011;40172;53.022;7.012;2023-08-06T08:45:12;9.23;;;6.60;;
54259;SDS011;40172;53.022;7.012;2023-08-06T08:47:43;7.00;;;6.30;;
54259;SDS011;40172;53.022;7.012;2023-08-06T08:50:09;7.30;;;6.63;;
54259;SDS011;40172;53.022;7.012;2023-08-06T08:52:36;8.35;;;6.93;;
54259;SDS011;40172;53.022;7.012;2023-08-06T08:55:04;12.40;;;6.75;;
54259;SDS011;40172;53.022;7.012;2023-08-06T08:57:31;10.32;;;6.70;;
54259;SDS011;40172;53.022;7.012;2023-08-06T08:59:57;6.72;;;6.00;;
54259;SDS011;40172;53.022;7.012;2023-08-06T09:02:22;9.32;;;5.70;;
54259;SDS011;40172;53.022;7.012;2023-08-06T09:04:52;7.30;;;5.70;;
54259;SDS011;40172;53.022;7.012;2023-08-06T09:07:19;6.40;;;5.30;;
54259;SDS011;40172;53.022;7.012;2023-08-06T09:09:47;7.65;;;5.15;;
54259;SDS011;40172;53.022;7.012;2023-08-06T09:12:15;6.75;;;5.50;;
54259;SDS011;40172;53.022;7.012;2023-08-06T09:14:41;8.70;;;5.43;;
54259;SDS011;40172;53.022;7.012;2023-08-06T09:17:07;10.48;;;5.10;;
54259;SDS011;40172;53.022;7.012;2023-08-06T09:19:35;6.88;;;5.00;;
54259;SDS011;40172;53.022;7.012;2023-08-06T09:22:01;6.15;;;4.70;;
54259;SDS011;40172;53.022;7.012;2023-08-06T09:24:27;5.95;;;4.32;;
54259;SDS011;40172;53.022;7.012;2023-08-06T09:26:53;6.45;;;4.68;;
54259;SDS011;40172;53.022;7.012;2023-08-06T09:29:19;5.25;;;4.40;;
54259;SDS011;40172;53.022;7.012;2023-08-06T09:31:46;7.78;;;4.45;;
54259;SDS011;40172;53.022;7.012;2023-08-06T09:34:20;10.95;;;4.68;;
54259;SDS011;40172;53.022;7.012;2023-08-06T09:36:47;6.18;;;3.75;;
54259;SDS011;40172;53.022;7.012;2023-08-06T09:39:16;4.82;;;3.10;;
54259;SDS011;40172;53.022;7.012;2023-08-06T09:41:43;7.93;;;3.28;;
54259;SDS011;40172;53.022;7.012;2023-08-06T09:44:19;4.38;;;3.38;;
54259;SDS011;40172;53.022;7.012;2023-08-06T09:46:52;6.47;;;2.85;;
54259;SDS011;40172;53.022;7.012;2023-08-06T09:51:52;5.93;;;2.50;;
54259;SDS011;40172;53.022;7.012;2023-08-06T09:54:23;3.80;;;2.13;;
54259;SDS011;40172;53.022;7.012;2023-08-06T09:56:51;6.63;;;2.13;;
54259;SDS011;40172;53.022;7.012;2023-08-06T09:59:17;4.68;;;2.10;;
54259;SDS011;40172;53.022;7.012;2023-08-06T10:01:44;2.92;;;1.88;;
54259;SDS011;40172;53.022;7.012;2023-08-06T10:04:11;2.42;;;1.83;;
54259;SDS011;40172;53.022;7.012;2023-08-06T10:06:41;2.28;;;1.55;;
54259;SDS011;40172;53.022;7.012;2023-08-06T10:09:08;3.78;;;1.70;;
54259;SDS011;40172;53.022;7.012;2023-08-06T10:11:34;2.95;;;1.70;;
54259;SDS011;40172;53.022;7.012;2023-08-06T10:14:24;2.85;;;1.67;;
54259;SDS011;40172;53.022;7.012;2023-08-06T10:16:58;3.40;;;1.80;;
54259;SDS011;40172;53.022;7.012;2023-08-06T10:19:25;3.50;;;1.65;;
54259;SDS011;40172;53.022;7.012;2023-08-06T10:22:14;2.92;;;1.63;;
54259;SDS011;40172;53.022;7.012;2023-08-06T10:24:52;3.28;;;1.52;;
54259;SDS011;40172;53.022;7.012;2023-08-06T10:30:19;3.65;;;1.60;;
54259;SDS011;40172;53.022;7.012;2023-08-06T10:32:58;2.33;;;1.60;;
54259;SDS011;40172;53.022;7.012;2023-08-06T10:38:14;4.93;;;1.65;;
54259;SDS011;40172;53.022;7.012;2023-08-06T10:40:42;3.63;;;1.58;;
54259;SDS011;40172;53.022;7.012;2023-08-06T10:43:40;1.73;;;1.50;;
54259;SDS011;40172;53.022;7.012;2023-08-06T10:46:11;2.42;;;1.70;;
54259;SDS011;40172;53.022;7.012;2023-08-06T10:48:48;5.25;;;1.60;;
54259;SDS011;40172;53.022;7.012;2023-08-06T10:51:14;2.95;;;1.60;;
54259;SDS011;40172;53.022;7.012;2023-08-06T10:53:47;7.20;;;1.75;;
54259;SDS011;40172;53.022;7.012;2023-08-06T10:56:14;4.43;;;1.95;;
54259;SDS011;40172;53.022;7.012;2023-08-06T10:58:41;8.50;;;2.22;;
54259;SDS011;40172;53.022;7.012;2023-08-06T11:01:07;2.90;;;1.90;;
54259;SDS011;40172;53.022;7.012;2023-08-06T11:03:33;2.40;;;1.52;;
54259;SDS011;40172;53.022;7.012;2023-08-06T11:05:59;2.53;;;1.80;;
54259;SDS011;40172;53.022;7.012;2023-08-06T11:10:52;4.38;;;2.10;;
54259;SDS011;40172;53.022;7.012;2023-08-06T11:13:20;4.60;;;1.90;;
54259;SDS011;40172;53.022;7.012;2023-08-06T11:15:46;2.10;;;1.63;;
54259;SDS011;40172;53.022;7.012;2023-08-06T11:18:13;3.58;;;1.80;;
54259;SDS011;40172;53.022;7.012;2023-08-06T11:20:39;4.90;;;1.80;;
54259;SDS011;40172;53.022;7.012;2023-08-06T11:23:05;3.00;;;1.80;;
54259;SDS011;40172;53.022;7.012;2023-08-06T11:25:31;2.60;;;1.70;;
54259;SDS011;40172;53.022;7.012;2023-08-06T11:28:02;3.38;;;1.77;;
54259;SDS011;40172;53.022;7.012;2023-08-06T11:30:28;7.45;;;2.28;;
54259;SDS011;40172;53.022;7.012;2023-08-06T11:32:53;4.78;;;1.80;;
54259;SDS011;40172;53.022;7.012;2023-08-06T11:35:19;4.07;;;1.63;;
54259;SDS011;40172;53.022;7.012;2023-08-06T11:37:45;2.83;;;1.88;;
54259;SDS011;40172;53.022;7.012;2023-08-06T11:40:11;2.88;;;1.70;;
54259;SDS011;40172;53.022;7.012;2023-08-06T11:42:39;5.00;;;1.92;;
54259;SDS011;40172;53.022;7.012;2023-08-06T11:45:05;4.63;;;1.83;;
54259;SDS011;40172;53.022;7.012;2023-08-06T11:47:31;2.60;;;1.55;;
54259;SDS011;40172;53.022;7.012;2023-08-06T11:49:57;1.70;;;1.48;;
54259;SDS011;40172;53.022;7.012;2023-08-06T11:52:23;2.95;;;1.70;;
54259;SDS011;40172;53.022;7.012;2023-08-06T11:55:03;5.68;;;1.67;;
54259;SDS011;40172;53.022;7.012;2023-08-06T11:57:35;2.88;;;1.90;;
54259;SDS011;40172;53.022;7.012;2023-08-06T12:00:05;3.65;;;1.80;;
54259;SDS011;40172;53.022;7.012;2023-08-06T12:02:33;2.47;;;1.60;;
54259;SDS011;40172;53.022;7.012;2023-08-06T12:07:37;2.30;;;1.48;;
54259;SDS011;40172;53.022;7.012;2023-08-06T12:10:06;2.40;;;1.40;;
54259;SDS011;40172;53.022;7.012;2023-08-06T12:12:33;2.55;;;1.67;;
54259;SDS011;40172;53.022;7.012;2023-08-06T12:14:59;5.35;;;1.90;;
54259;SDS011;40172;53.022;7.012;2023-08-06T12:17:25;2.30;;;1.48;;
54259;SDS011;40172;53.022;7.012;2023-08-06T12:19:50;3.88;;;1.70;;
54259;SDS011;40172;53.022;7.012;2023-08-06T12:22:16;2.40;;;1.50;;
54259;SDS011;40172;53.022;7.012;2023-08-06T12:24:42;2.65;;;1.70;;
54259;SDS011;40172;53.022;7.012;2023-08-06T12:27:11;2.38;;;1.52;;
54259;SDS011;40172;53.022;7.012;2023-08-06T12:29:41;3.95;;;1.70;;
54259;SDS011;40172;53.022;7.012;2023-08-06T12:32:09;2.03;;;1.60;;
54259;SDS011;40172;53.022;7.012;2023-08-06T12:34:35;8.70;;;1.80;;
54259;SDS011;40172;53.022;7.012;2023-08-06T12:37:02;2.63;;;1.60;;
54259;SDS011;40172;53.022;7.012;2023-08-06T12:39:28;4.38;;;1.90;;
54259;SDS011;40172;53.022;7.012;2023-08-06T12:41:57;1.77;;;1.45;;
54259;SDS011;40172;53.022;7.012;2023-08-06T12:44:23;4.47;;;1.50;;
54259;SDS011;40172;53.022;7.012;2023-08-06T12:46:49;2.80;;;1.90;;
54259;SDS011;40172;53.022;7.012;2023-08-06T12:49:16;4.38;;;1.70;;
54259;SDS011;40172;53.022;7.012;2023-08-06T12:51:42;3.35;;;1.45;;
54259;SDS011;40172;53.022;7.012;2023-08-06T12:54:08;2.67;;;1.73;;
54259;SDS011;40172;53.022;7.012;2023-08-06T12:56:34;5.03;;;1.55;;
54259;SDS011;40172;53.022;7.012;2023-08-06T12:58:59;3.08;;;1.80;;
54259;SDS011;40172;53.022;7.012;2023-08-06T13:01:25;2.70;;;1.80;;
54259;SDS011;40172;53.022;7.012;2023-08-06T13:03:51;4.72;;;1.90;;
54259;SDS011;40172;53.022;7.012;2023-08-06T13:06:16;4.20;;;1.70;;
54259;SDS011;40172;53.022;7.012;2023-08-06T13:08:42;5.00;;;1.90;;
54259;SDS011;40172;53.022;7.012;2023-08-06T13:11:07;3.90;;;1.80;;
54259;SDS011;40172;53.022;7.012;2023-08-06T13:13:33;2.58;;;1.50;;
54259;SDS011;40172;53.022;7.012;2023-08-06T13:15:59;5.57;;;1.67;;
54259;SDS011;40172;53.022;7.012;2023-08-06T13:18:24;4.80;;;1.70;;
54259;SDS011;40172;53.022;7.012;2023-08-06T13:20:53;2.95;;;1.67;;
54259;SDS011;40172;53.022;7.012;2023-08-06T13:23:19;3.80;;;2.03;;
54259;SDS011;40172;53.022;7.012;2023-08-06T13:25:45;2.97;;;1.75;;
54259;SDS011;40172;53.022;7.012;2023-08-06T13:28:11;3.40;;;1.80;;
54259;SDS011;40172;53.022;7.012;2023-08-06T13:30:38;4.75;;;2.03;;
54259;SDS011;40172;53.022;7.012;2023-08-06T13:33:07;3.25;;;1.65;;
54259;SDS011;40172;53.022;7.012;2023-08-06T13:35:33;3.72;;;1.63;;
54259;SDS011;40172;53.022;7.012;2023-08-06T13:37:59;3.03;;;1.60;;
54259;SDS011;40172;53.022;7.012;2023-08-06T13:40:27;1.90;;;1.60;;
54259;SDS011;40172;53.022;7.012;2023-08-06T13:42:53;3.33;;;1.60;;
54259;SDS011;40172;53.022;7.012;2023-08-06T13:45:19;2.95;;;1.95;;
54259;SDS011;40172;53.022;7.012;2023-08-06T13:47:45;4.13;;;1.88;;
54259;SDS011;40172;53.022;7.012;2023-08-06T13:50:10;4.40;;;1.90;;
54259;SDS011;40172;53.022;7.012;2023-08-06T13:52:36;2.67;;;2.05;;
54259;SDS011;40172;53.022;7.012;2023-08-06T13:55:01;2.47;;;2.00;;
54259;SDS011;40172;53.022;7.012;2023-08-06T13:57:29;3.38;;;1.80;;
54259;SDS011;40172;53.022;7.012;2023-08-06T13:59:54;5.20;;;2.22;;
54259;SDS011;40172;53.022;7.012;2023-08-06T14:02:20;3.72;;;2.33;;
54259;SDS011;40172;53.022;7.012;2023-08-06T14:04:47;4.70;;;2.00;;
54259;SDS011;40172;53.022;7.012;2023-08-06T14:07:13;3.13;;;1.95;;
54259;SDS011;40172;53.022;7.012;2023-08-06T14:09:38;2.60;;;1.90;;
54259;SDS011;40172;53.022;7.012;2023-08-06T14:12:05;3.13;;;1.80;;
54259;SDS011;40172;53.022;7.012;2023-08-06T14:14:31;4.50;;;1.92;;
54259;SDS011;40172;53.022;7.012;2023-08-06T14:16:57;3.40;;;1.73;;
54259;SDS011;40172;53.022;7.012;2023-08-06T14:19:22;3.08;;;1.90;;
54259;SDS011;40172;53.022;7.012;2023-08-06T14:21:48;2.42;;;1.73;;
54259;SDS011;40172;53.022;7.012;2023-08-06T14:24:14;2.53;;;1.80;;
54259;SDS011;40172;53.022;7.012;2023-08-06T14:26:40;4.60;;;2.13;;
54259;SDS011;40172;53.022;7.012;2023-08-06T14:29:05;3.42;;;1.92;;
54259;SDS011;40172;53.022;7.012;2023-08-06T14:31:31;3.97;;;2.10;;
54259;SDS011;40172;53.022;7.012;2023-08-06T14:33:57;1.83;;;1.65;;
54259;SDS011;40172;53.022;7.012;2023-08-06T14:36:22;2.17;;;1.60;;
54259;SDS011;40172;53.022;7.012;2023-08-06T14:38:48;2.28;;;1.60;;
54259;SDS011;40172;53.022;7.012;2023-08-06T14:41:13;3.08;;;1.90;;
54259;SDS011;40172;53.022;7.012;2023-08-06T14:43:39;4.32;;;2.10;;
54259;SDS011;40172;53.022;7.012;2023-08-06T14:46:05;5.68;;;2.03;;
54259;SDS011;40172;53.022;7.012;2023-08-06T14:48:30;3.83;;;1.73;;
54259;SDS011;40172;53.022;7.012;2023-08-06T14:50:56;5.25;;;1.85;;
54259;SDS011;40172;53.022;7.012;2023-08-06T14:53:22;4.78;;;1.65;;